Time;durP1;ratioP1;P1;durP2;ratioP2;P2;SDS_P1;SDS_P2;PMS_P1;PMS_P2;Temp;Humidity;BMP_temperature;BMP_pressure;BME280_temperature;BME280_humidity;BME280_pressure;Samples;Min_cycle;Max_cycle;Signal;HPM_P1;HPM_P2
2022/07/16 00:03:37;;;;;;;4.27;1.67;;;;;;;15.31;100.00;99495.00;4996433;28;20218;-78
2022/07/16 00:06:06;;;;;;;2.47;1.50;;;;;;;15.11;100.00;99494.75;4986076;28;20203;-78
2022/07/16 00:08:34;;;;;;;5.20;1.77;;;;;;;15.00;100.00;99488.53;4991436;28;20218;-78
2022/07/16 00:11:04;;;;;;;2.47;1.60;;;;;;;15.30;100.00;99493.31;4989460;28;20227;-78
2022/07/16 00:13:32;;;;;;;4.47;1.60;;;;;;;15.07;100.00;99492.44;4992843;28;20210;-79
2022/07/16 00:16:01;;;;;;;5.20;1.53;;;;;;;14.95;100.00;99486.22;4989554;28;20191;-78
2022/07/16 00:21:16;;;;;;;3.60;1.80;;;;;;;14.72;100.00;99492.47;4991837;28;20253;-78
2022/07/16 00:23:44;;;;;;;2.93;1.60;;;;;;;14.65;100.00;99485.88;4992635;28;20250;-78
2022/07/16 00:26:14;;;;;;;3.87;1.60;;;;;;;14.69;100.00;99474.88;4989220;28;20307;-78
2022/07/16 00:28:42;;;;;;;4.70;1.73;;;;;;;14.76;100.00;99496.59;4988955;28;20203;-78
2022/07/16 00:31:11;;;;;;;2.07;1.70;;;;;;;14.71;100.00;99485.44;4989565;28;20214;-78
2022/07/16 00:33:39;;;;;;;3.00;1.57;;;;;;;14.77;100.00;99483.16;5051583;28;20208;-78
2022/07/16 00:36:08;;;;;;;2.87;1.80;;;;;;;14.67;100.00;99471.50;5045683;28;20197;-78
2022/07/16 00:38:36;;;;;;;4.63;2.00;;;;;;;14.76;100.00;99473.44;5045546;28;20228;-78
2022/07/16 00:41:04;;;;;;;3.50;1.87;;;;;;;14.70;100.00;99473.06;5051523;28;20205;-79
2022/07/16 00:43:45;;;;;;;3.53;1.60;;;;;;;14.71;100.00;99470.28;5003499;28;20233;-78
2022/07/16 00:46:13;;;;;;;4.90;1.70;;;;;;;14.81;100.00;99467.78;5008861;28;20205;-78
2022/07/16 00:48:42;;;;;;;3.60;1.80;;;;;;;14.60;100.00;99471.09;5010584;28;20217;-78
2022/07/16 00:51:13;;;;;;;3.20;1.60;;;;;;;14.71;100.00;99467.63;4997928;28;20272;-78
2022/07/16 00:53:42;;;;;;;4.27;1.70;;;;;;;14.89;100.00;99465.38;4950588;29;20228;-78
2022/07/16 00:56:12;;;;;;;4.87;1.83;;;;;;;14.59;100.00;99471.22;5014832;28;20276;-78
2022/07/16 00:58:43;;;;;;;3.07;1.70;;;;;;;14.57;100.00;99466.00;5049608;28;20224;-78
2022/07/16 01:01:12;;;;;;;4.50;1.90;;;;;;;14.46;100.00;99467.75;5042356;28;20221;-79
2022/07/16 01:03:42;;;;;;;3.23;1.77;;;;;;;14.39;100.00;99471.84;5051020;28;20216;-78
2022/07/16 01:06:12;;;;;;;3.40;1.93;;;;;;;14.49;100.00;99472.88;5051093;28;20200;-78
2022/07/16 01:08:42;;;;;;;3.00;1.60;;;;;;;14.31;100.00;99477.72;4910156;29;20610;-78
2022/07/16 01:11:14;;;;;;;4.13;1.97;;;;;;;14.13;100.00;99469.28;4890997;29;20292;-78
2022/07/16 01:13:46;;;;;;;3.70;1.87;;;;;;;14.12;100.00;99467.59;4888414;29;20202;-78
2022/07/16 01:16:15;;;;;;;3.70;1.90;;;;;;;14.45;100.00;99472.25;4891114;29;20202;-78
2022/07/16 01:18:45;;;;;;;3.03;1.80;;;;;;;14.19;100.00;99474.16;4903499;28;20206;-78
2022/07/16 01:21:14;;;;;;;4.23;2.07;;;;;;;14.40;100.00;99478.88;4902961;28;20214;-78
2022/07/16 01:23:45;;;;;;;3.00;1.87;;;;;;;14.25;100.00;99473.69;4889924;29;20230;-78
2022/07/16 01:26:14;;;;;;;2.90;1.90;;;;;;;14.38;100.00;99475.44;4915533;28;20248;-78
2022/07/16 01:28:42;;;;;;;4.80;2.20;;;;;;;14.10;100.00;99471.34;4987100;28;20233;-78
2022/07/16 01:31:11;;;;;;;3.13;1.80;;;;;;;14.08;100.00;99476.75;4992106;28;20206;-78
2022/07/16 01:33:42;;;;;;;4.70;2.10;;;;;;;14.03;100.00;99477.09;4988874;28;20195;-78
2022/07/16 01:36:12;;;;;;;2.63;1.70;;;;;;;13.84;100.00;99482.06;4986503;28;20206;-78
2022/07/16 01:38:42;;;;;;;4.20;1.90;;;;;;;13.87;100.00;99478.31;4986769;28;20258;-79
2022/07/16 01:41:13;;;;;;;4.33;2.17;;;;;;;13.80;100.00;99477.03;4991770;28;20210;-79
2022/07/16 01:43:42;;;;;;;4.00;2.27;;;;;;;13.83;100.00;99479.50;4994035;28;20207;-78
2022/07/16 01:46:10;;;;;;;4.27;1.97;;;;;;;13.90;100.00;99478.13;4982774;28;20211;-79
2022/07/16 01:48:39;;;;;;;5.27;2.10;;;;;;;13.83;100.00;99482.19;4988107;28;20670;-78
2022/07/16 01:51:08;;;;;;;4.27;2.60;;;;;;;13.61;100.00;99483.72;4990773;28;20203;-78
2022/07/16 01:53:38;;;;;;;4.23;2.17;;;;;;;13.55;100.00;99483.28;4985424;28;20206;-78
2022/07/16 01:56:08;;;;;;;4.80;2.03;;;;;;;13.52;100.00;99479.06;4987853;28;20657;-78
2022/07/16 01:58:37;;;;;;;5.50;2.40;;;;;;;13.53;100.00;99482.56;4964677;28;20211;-78
2022/07/16 02:01:06;;;;;;;4.13;2.40;;;;;;;13.45;100.00;99481.28;4967133;28;20282;-78
2022/07/16 02:03:34;;;;;;;2.30;2.10;;;;;;;13.62;100.00;99480.09;4966386;28;20203;-79
2022/07/16 02:06:02;;;;;;;3.23;2.07;;;;;;;13.63;100.00;99479.13;4967065;28;20220;-79
2022/07/16 02:08:30;;;;;;;3.97;2.20;;;;;;;13.55;100.00;99481.47;4969153;28;20204;-78
2022/07/16 02:10:58;;;;;;;2.80;2.20;;;;;;;13.36;100.00;99481.94;4968846;28;20211;-78
2022/07/16 02:13:26;;;;;;;5.13;2.37;;;;;;;13.21;100.00;99479.47;4967838;28;20211;-78
2022/07/16 02:15:56;;;;;;;4.67;2.37;;;;;;;13.39;100.00;99475.53;4970385;28;20211;-79
2022/07/16 02:18:25;;;;;;;3.60;2.30;;;;;;;13.33;100.00;99476.84;4968744;28;20200;-79
2022/07/16 02:20:54;;;;;;;4.63;2.20;;;;;;;13.40;100.00;99474.56;4969028;28;20204;-78
2022/07/16 02:23:22;;;;;;;4.27;2.37;;;;;;;13.50;100.00;99474.78;4970325;28;20218;-78
2022/07/16 02:25:51;;;;;;;3.53;2.40;;;;;;;13.50;100.00;99478.28;4967290;28;20220;-79
2022/07/16 02:28:19;;;;;;;2.93;2.20;;;;;;;13.55;100.00;99476.16;4967391;28;20200;-78
2022/07/16 02:30:49;;;;;;;2.80;2.20;;;;;;;13.39;100.00;99473.72;4985021;28;20199;-78
2022/07/16 02:33:21;;;;;;;3.50;2.10;;;;;;;13.38;100.00;99468.50;4986343;28;20207;-78
2022/07/16 02:35:50;;;;;;;6.80;2.30;;;;;;;13.51;100.00;99468.50;4987571;28;20313;-79
2022/07/16 02:38:18;;;;;;;3.93;2.50;;;;;;;13.39;100.00;99460.41;4987382;28;20265;-78
2022/07/16 02:40:46;;;;;;;4.57;2.37;;;;;;;13.28;100.00;99473.63;4986693;28;20209;-78
2022/07/16 02:43:14;;;;;;;3.17;2.50;;;;;;;13.24;100.00;99469.50;4983644;28;20260;-78
2022/07/16 02:45:43;;;;;;;3.80;2.40;;;;;;;13.34;100.00;99469.69;4990180;28;20215;-79
2022/07/16 02:48:12;;;;;;;3.57;2.40;;;;;;;13.31;100.00;99472.56;4988012;28;20199;-79
2022/07/16 02:50:42;;;;;;;4.63;2.20;;;;;;;13.07;100.00;99475.09;4990299;28;20217;-78
2022/07/16 02:53:10;;;;;;;4.30;2.43;;;;;;;13.10;100.00;99473.06;4987533;28;20207;-78
2022/07/16 02:55:39;;;;;;;3.87;2.50;;;;;;;13.04;100.00;99473.50;4987346;28;20263;-78
2022/07/16 02:58:07;;;;;;;5.40;2.40;;;;;;;13.02;100.00;99477.22;4993694;28;20211;-79
2022/07/16 03:00:35;;;;;;;4.50;2.67;;;;;;;12.92;100.00;99477.00;4991349;28;20317;-78
2022/07/16 03:03:03;;;;;;;5.57;2.30;;;;;;;13.10;100.00;99474.88;4988413;28;20214;-78
2022/07/16 03:05:32;;;;;;;4.40;2.50;;;;;;;13.18;100.00;99480.53;4991038;28;20231;-79
2022/07/16 03:08:02;;;;;;;5.17;2.50;;;;;;;13.13;100.00;99482.66;4988129;28;20654;-78
2022/07/16 03:10:30;;;;;;;3.93;2.57;;;;;;;13.08;100.00;99482.97;4989107;28;20221;-78
2022/07/16 03:12:58;;;;;;;4.83;2.20;;;;;;;13.11;100.00;99488.06;4992828;28;20354;-79
2022/07/16 03:15:26;;;;;;;2.87;2.20;;;;;;;13.03;100.00;99486.91;5002970;28;20203;-79
2022/07/16 03:17:54;;;;;;;4.30;2.63;;;;;;;12.92;100.00;99487.63;4997812;28;20282;-78
2022/07/16 03:20:26;;;;;;;5.80;2.63;;;;;;;12.80;100.00;99484.00;4993192;28;20214;-79
2022/07/16 03:22:54;;;;;;;4.80;2.47;;;;;;;12.85;100.00;99481.91;4995052;28;20210;-79
2022/07/16 03:25:24;;;;;;;4.10;2.40;;;;;;;12.80;100.00;99481.34;4993666;28;20222;-78
2022/07/16 03:27:52;;;;;;;4.70;2.13;;;;;;;13.00;100.00;99493.28;4996632;28;20227;-78
2022/07/16 03:30:20;;;;;;;3.40;2.47;;;;;;;12.85;100.00;99489.88;4996720;28;20191;-78
2022/07/16 03:32:49;;;;;;;6.20;2.50;;;;;;;12.82;100.00;99481.25;4993108;28;20654;-78
2022/07/16 03:35:17;;;;;;;2.97;2.20;;;;;;;12.89;100.00;99486.03;4989823;28;20195;-78
2022/07/16 03:40:34;;;;;;;4.57;2.70;;;;;;;12.82;100.00;99486.56;4992529;28;20203;-78
2022/07/16 03:43:03;;;;;;;4.07;2.70;;;;;;;13.00;100.00;99489.78;4991424;28;20278;-78
2022/07/16 03:45:31;;;;;;;6.13;2.83;;;;;;;12.90;100.00;99481.56;4987156;28;20226;-78
2022/07/16 03:48:00;;;;;;;4.33;2.70;;;;;;;12.94;100.00;99484.88;4992468;28;20320;-78
2022/07/16 03:50:28;;;;;;;5.13;2.77;;;;;;;12.84;100.00;99484.66;4990787;28;20207;-78
2022/07/16 03:52:56;;;;;;;4.17;2.73;;;;;;;12.79;100.00;99487.63;4992523;28;20283;-78
2022/07/16 03:55:25;;;;;;;4.50;2.43;;;;;;;12.72;100.00;99488.97;4986887;28;20359;-78
2022/07/16 03:57:54;;;;;;;5.00;3.00;;;;;;;12.89;100.00;99487.84;4984412;28;20230;-78
2022/07/16 04:00:23;;;;;;;5.70;2.70;;;;;;;12.74;100.00;99486.22;4988300;28;20203;-78
2022/07/16 04:02:51;;;;;;;5.53;2.67;;;;;;;12.88;100.00;99487.00;4989340;28;20206;-78
2022/07/16 04:05:20;;;;;;;5.37;2.87;;;;;;;12.98;100.00;99492.53;4989414;28;20223;-78
2022/07/16 04:07:48;;;;;;;5.97;2.70;;;;;;;12.98;100.00;99494.34;4992307;28;20226;-78
2022/07/16 04:10:20;;;;;;;4.67;2.50;;;;;;;12.87;100.00;99497.75;4996712;28;20199;-78
2022/07/16 04:12:48;;;;;;;5.07;2.37;;;;;;;12.97;100.00;99503.28;4986272;28;20187;-78
2022/07/16 04:15:18;;;;;;;4.03;2.40;;;;;;;12.54;100.00;99501.69;4989317;28;20210;-78
2022/07/16 04:17:46;;;;;;;2.87;2.20;;;;;;;12.59;100.00;99509.38;4985860;28;20226;-78
2022/07/16 04:20:14;;;;;;;2.60;2.40;;;;;;;12.58;100.00;99516.50;4992148;28;20191;-78
2022/07/16 04:22:43;;;;;;;2.87;2.30;;;;;;;12.66;100.00;99516.00;4989250;28;20208;-79
2022/07/16 04:25:12;;;;;;;3.43;2.10;;;;;;;12.61;100.00;99515.44;4992054;28;20279;-78
2022/07/16 04:27:41;;;;;;;3.13;2.33;;;;;;;12.81;100.00;99514.94;4991308;28;20187;-78
2022/07/16 04:30:11;;;;;;;6.63;2.23;;;;;;;12.88;100.00;99513.59;4989121;28;20231;-78
2022/07/16 04:32:42;;;;;;;3.50;2.60;;;;;;;12.80;100.00;99513.25;4991889;28;20287;-78
2022/07/16 04:35:13;;;;;;;4.53;2.50;;;;;;;12.94;100.00;99527.44;4990077;28;20188;-78
2022/07/16 04:37:42;;;;;;;6.10;2.53;;;;;;;13.04;100.00;99521.38;4988884;28;20231;-79
2022/07/16 04:40:11;;;;;;;3.47;2.80;;;;;;;13.05;100.00;99516.91;4988803;28;20208;-78
2022/07/16 04:42:41;;;;;;;5.10;2.80;;;;;;;13.07;100.00;99515.00;4991464;28;20207;-78
2022/07/16 04:45:10;;;;;;;4.50;2.67;;;;;;;13.03;100.00;99510.84;4988569;28;20202;-78
2022/07/16 04:47:39;;;;;;;3.07;2.67;;;;;;;13.09;100.00;99508.59;4986103;28;20227;-78
2022/07/16 04:50:10;;;;;;;7.20;2.80;;;;;;;13.10;100.00;99515.63;4989059;28;20219;-78
2022/07/16 04:52:38;;;;;;;5.77;2.57;;;;;;;13.23;100.00;99513.03;4991588;28;20282;-78
2022/07/16 04:55:08;;;;;;;2.93;2.53;;;;;;;13.32;100.00;99516.84;4991912;28;20199;-78
2022/07/16 04:57:36;;;;;;;5.33;2.63;;;;;;;13.58;100.00;99507.88;4991479;28;20210;-78
2022/07/16 05:00:06;;;;;;;4.97;2.87;;;;;;;13.71;100.00;99515.88;4987517;28;20202;-78
2022/07/16 05:05:22;;;;;;;8.73;2.53;;;;;;;13.79;100.00;99518.81;4991402;28;20225;-78
2022/07/16 05:07:50;;;;;;;5.30;2.90;;;;;;;13.99;100.00;99517.38;4993703;28;20227;-78
2022/07/16 05:10:18;;;;;;;4.00;2.57;;;;;;;14.28;100.00;99513.47;5035262;28;20199;-78
2022/07/16 05:12:46;;;;;;;4.13;2.60;;;;;;;14.37;100.00;99511.91;4987205;28;20203;-79
2022/07/16 05:15:15;;;;;;;3.83;2.90;;;;;;;14.26;100.00;99507.38;4991198;28;20223;-78
2022/07/16 05:17:43;;;;;;;6.90;2.90;;;;;;;14.36;100.00;99506.69;4985862;28;20195;-78
2022/07/16 05:20:12;;;;;;;5.53;2.83;;;;;;;14.19;100.00;99505.28;4985210;28;20199;-78
2022/07/16 05:22:42;;;;;;;4.13;2.40;;;;;;;14.15;100.00;99501.13;4984563;28;20203;-78
2022/07/16 05:25:12;;;;;;;4.60;2.70;;;;;;;14.51;100.00;99506.44;4995198;28;20203;-78
2022/07/16 05:27:40;;;;;;;4.50;2.97;;;;;;;14.43;100.00;99513.28;4986873;28;20254;-78
2022/07/16 05:30:10;;;;;;;6.50;2.80;;;;;;;14.40;100.00;99509.03;4985593;28;20286;-79
2022/07/16 05:32:41;;;;;;;3.77;2.83;;;;;;;14.35;100.00;99516.50;4990839;28;20703;-79
2022/07/16 05:35:11;;;;;;;3.67;2.70;;;;;;;14.42;100.00;99519.56;4949673;28;20201;-78
2022/07/16 05:37:39;;;;;;;5.73;2.60;;;;;;;14.36;100.00;99520.88;4950034;28;20224;-78
2022/07/16 05:40:10;;;;;;;4.07;2.70;;;;;;;14.37;100.00;99516.38;4945245;28;20208;-78
2022/07/16 05:42:38;;;;;;;5.03;2.60;;;;;;;14.32;100.00;99520.25;4953034;28;20207;-79
2022/07/16 05:45:15;;;;;;;4.60;2.80;;;;;;;14.51;100.00;99526.91;4948800;28;20203;-78
2022/07/16 05:47:43;;;;;;;4.20;2.57;;;;;;;14.59;100.00;99522.72;4950088;28;20227;-78
2022/07/16 05:50:11;;;;;;;4.70;2.50;;;;;;;14.77;100.00;99516.97;4944966;28;20222;-78
2022/07/16 05:52:40;;;;;;;5.73;3.00;;;;;;;15.02;100.00;99527.47;4958588;28;20251;-78
2022/07/16 05:55:11;;;;;;;4.60;2.60;;;;;;;15.19;100.00;99523.50;4984337;28;20279;-79
2022/07/16 05:57:39;;;;;;;4.27;2.67;;;;;;;15.13;100.00;99532.81;4993894;28;20653;-78
2022/07/16 06:00:10;;;;;;;4.90;2.70;;;;;;;15.20;100.00;99535.03;4984187;28;20233;-78
2022/07/16 06:02:40;;;;;;;5.97;2.80;;;;;;;15.44;100.00;99535.78;4990740;28;20243;-79
2022/07/16 06:05:10;;;;;;;4.13;2.87;;;;;;;15.61;100.00;99526.50;4989043;28;20222;-78
2022/07/16 06:07:38;;;;;;;4.17;2.50;;;;;;;15.72;100.00;99530.00;4987673;28;20233;-78
2022/07/16 06:10:09;;;;;;;5.43;2.60;;;;;;;15.69;100.00;99524.06;4988374;28;20199;-78
2022/07/16 06:12:39;;;;;;;2.83;2.50;;;;;;;15.81;100.00;99524.91;4989388;28;20187;-78
2022/07/16 06:15:10;;;;;;;4.50;2.70;;;;;;;16.12;100.00;99523.31;4988753;28;20630;-78
2022/07/16 06:17:39;;;;;;;3.57;2.27;;;;;;;16.28;100.00;99524.59;4988936;28;20203;-78
2022/07/16 06:20:09;;;;;;;3.53;2.50;;;;;;;16.33;100.00;99528.75;4987276;28;20198;-78
2022/07/16 06:22:37;;;;;;;3.13;2.10;;;;;;;16.43;100.00;99535.03;4985349;28;20223;-78
2022/07/16 06:25:13;;;;;;;5.50;2.20;;;;;;;16.46;100.00;99532.09;4988370;28;20203;-78
2022/07/16 06:27:43;;;;;;;6.73;2.60;;;;;;;16.56;100.00;99530.34;4989280;28;20215;-79
2022/07/16 06:30:12;;;;;;;4.33;1.70;;;;;;;16.78;100.00;99530.28;4991035;28;20202;-78
2022/07/16 06:32:40;;;;;;;4.63;2.00;;;;;;;16.85;100.00;99536.84;4987025;28;20199;-78
2022/07/16 06:35:10;;;;;;;3.73;2.27;;;;;;;16.94;100.00;99537.03;4987449;28;20242;-78
2022/07/16 06:37:38;;;;;;;5.83;2.30;;;;;;;16.97;100.00;99540.28;4990934;28;20231;-79
2022/07/16 06:40:08;;;;;;;4.17;2.37;;;;;;;16.93;100.00;99535.34;4984678;28;20207;-78
2022/07/16 06:42:38;;;;;;;3.87;2.13;;;;;;;16.64;100.00;99533.25;4988252;28;20206;-78
2022/07/16 06:45:07;;;;;;;3.00;2.03;;;;;;;16.90;100.00;99538.28;4993367;28;20200;-78
2022/07/16 06:47:35;;;;;;;2.73;2.00;;;;;;;16.85;100.00;99542.19;4989439;28;20242;-78
2022/07/16 06:50:06;;;;;;;4.93;2.07;;;;;;;17.00;100.00;99550.78;4990739;28;20305;-78
2022/07/16 06:52:34;;;;;;;4.47;2.03;;;;;;;17.24;100.00;99546.97;4993197;28;20206;-78
2022/07/16 06:55:02;;;;;;;2.77;1.97;;;;;;;17.21;100.00;99537.38;4993152;28;20210;-78
2022/07/16 06:57:32;;;;;;;6.73;2.27;;;;;;;16.95;100.00;99544.09;4992251;28;20195;-78
2022/07/16 07:00:02;;;;;;;5.20;2.30;;;;;;;17.10;100.00;99542.81;4988142;28;20210;-78
2022/07/16 07:02:30;;;;;;;5.10;2.37;;;;;;;17.37;100.00;99545.81;4987842;28;20199;-78
2022/07/16 07:04:58;;;;;;;5.83;1.97;;;;;;;17.55;100.00;99547.84;4993039;28;20226;-78
2022/07/16 07:07:27;;;;;;;5.97;2.00;;;;;;;17.51;100.00;99543.75;4990274;28;20226;-78
2022/07/16 07:09:55;;;;;;;8.27;1.93;;;;;;;17.79;100.00;99553.81;4993072;28;20211;-78
2022/07/16 07:12:23;;;;;;;4.07;2.00;;;;;;;17.86;100.00;99549.63;4991683;28;20234;-78
2022/07/16 07:14:51;;;;;;;3.50;1.90;;;;;;;18.05;100.00;99547.97;4993000;28;20202;-78
2022/07/16 07:17:21;;;;;;;3.63;2.13;;;;;;;18.12;100.00;99543.75;4989963;28;20207;-78
2022/07/16 07:19:51;;;;;;;5.13;2.00;;;;;;;18.29;100.00;99543.94;4990450;28;20191;-79
2022/07/16 07:22:19;;;;;;;5.10;2.20;;;;;;;18.52;100.00;99541.88;4991865;28;20205;-79
2022/07/16 07:24:47;;;;;;;7.80;2.27;;;;;;;18.73;100.00;99540.94;4988893;28;20203;-78
2022/07/16 07:27:16;;;;;;;4.43;2.40;;;;;;;18.87;100.00;99537.84;4991461;28;20229;-79
2022/07/16 07:29:44;;;;;;;7.07;2.60;;;;;;;18.93;100.00;99552.53;4995169;28;20203;-78
2022/07/16 07:32:14;;;;;;;4.73;2.40;;;;;;;18.77;100.00;99542.34;4990023;28;20206;-78
2022/07/16 07:34:44;;;;;;;6.80;2.20;;;;;;;19.05;100.00;99537.97;4990365;28;20226;-78
2022/07/16 07:37:13;;;;;;;5.90;2.10;;;;;;;19.17;100.00;99537.66;4994389;28;20230;-78
2022/07/16 07:39:41;;;;;;;7.77;3.03;;;;;;;19.06;100.00;99543.19;4993239;28;20246;-78
2022/07/16 07:42:09;;;;;;;4.67;2.23;;;;;;;19.04;100.00;99542.50;4986550;28;20339;-78
2022/07/16 07:44:38;;;;;;;7.83;2.73;;;;;;;19.02;100.00;99544.47;4992519;28;20203;-78
2022/07/16 07:47:06;;;;;;;12.53;2.47;;;;;;;18.98;100.00;99547.56;4983120;28;20199;-78
2022/07/16 07:49:35;;;;;;;10.33;2.60;;;;;;;18.80;100.00;99544.75;4989679;28;20255;-78
2022/07/16 07:52:12;;;;;;;7.73;2.53;;;;;;;18.69;100.00;99537.69;4992471;28;20216;-79
2022/07/16 07:54:41;;;;;;;6.40;2.43;;;;;;;19.14;100.00;99543.31;4989841;28;20203;-78
2022/07/16 07:57:09;;;;;;;11.93;2.60;;;;;;;18.58;100.00;99553.88;4987020;28;20223;-79
2022/07/16 07:59:37;;;;;;;5.80;2.27;;;;;;;18.69;100.00;99550.25;4987950;28;20195;-78
2022/07/16 08:02:06;;;;;;;12.00;2.57;;;;;;;18.95;100.00;99558.59;4987082;28;20214;-78
2022/07/16 08:04:34;;;;;;;6.47;2.00;;;;;;;19.35;100.00;99547.66;4990573;28;20254;-78
2022/07/16 08:07:03;;;;;;;5.00;2.07;;;;;;;18.62;100.00;99549.91;4989940;28;20210;-78
2022/07/16 08:09:33;;;;;;;6.13;2.10;;;;;;;18.84;100.00;99552.41;4991520;28;20199;-79
2022/07/16 08:12:01;;;;;;;4.93;1.80;;;;;;;19.22;100.00;99548.00;4992017;28;20207;-78
2022/07/16 08:14:29;;;;;;;7.07;2.20;;;;;;;19.20;100.00;99547.25;4986188;28;20210;-78
2022/07/16 08:16:58;;;;;;;3.90;2.00;;;;;;;19.59;100.00;99542.72;4992104;28;20312;-78
2022/07/16 08:19:27;;;;;;;4.47;1.93;;;;;;;19.81;100.00;99549.56;4989570;28;20195;-78
2022/07/16 08:21:55;;;;;;;4.90;2.03;;;;;;;19.89;100.00;99544.28;4986542;28;20370;-78
2022/07/16 08:27:10;;;;;;;5.93;2.00;;;;;;;19.83;99.48;99542.19;4990863;28;20201;-78
2022/07/16 08:29:39;;;;;;;4.57;1.93;;;;;;;19.17;100.00;99547.56;4987551;28;20231;-78
2022/07/16 08:32:08;;;;;;;3.53;1.80;;;;;;;19.83;100.00;99547.56;4996453;28;20278;-78
2022/07/16 08:34:36;;;;;;;5.17;1.90;;;;;;;20.09;97.79;99554.97;4988843;28;20203;-78
2022/07/16 08:37:09;;;;;;;5.50;1.83;;;;;;;20.16;98.02;99548.81;4987830;28;20310;-78
2022/07/16 08:39:42;;;;;;;3.35;1.80;;;;;;;20.30;96.66;99547.47;4991784;28;20203;-79
2022/07/16 08:42:13;;;;;;;5.10;1.90;;;;;;;20.44;94.77;99549.66;4984501;28;20209;-78
2022/07/16 08:44:41;;;;;;;6.38;2.00;;;;;;;20.45;94.53;99545.13;4981145;28;20211;-78
2022/07/16 08:47:11;;;;;;;4.07;1.95;;;;;;;20.64;94.04;99547.69;4982984;28;20200;-78
2022/07/16 08:49:40;;;;;;;9.55;1.80;;;;;;;20.42;96.57;99548.94;4995802;28;20223;-78
2022/07/16 08:52:09;;;;;;;5.00;1.90;;;;;;;20.49;99.02;99544.69;4990121;28;20266;-78
2022/07/16 08:54:39;;;;;;;5.50;1.70;;;;;;;21.01;94.58;99550.22;4988710;28;20673;-78
2022/07/16 08:57:08;;;;;;;3.45;1.90;;;;;;;21.42;85.15;99555.97;4987237;28;20199;-78
2022/07/16 08:59:39;;;;;;;2.65;1.52;;;;;;;21.58;83.30;99555.25;4985147;28;20199;-78
2022/07/16 09:02:07;;;;;;;4.05;1.90;;;;;;;21.66;80.09;99552.59;4991456;28;20332;-78
2022/07/16 09:04:36;;;;;;;5.55;1.92;;;;;;;21.84;79.57;99555.25;4991174;28;20202;-78
2022/07/16 09:07:04;;;;;;;2.83;1.63;;;;;;;22.03;80.57;99543.38;4978212;28;20207;-78
2022/07/16 09:09:32;;;;;;;4.22;1.75;;;;;;;22.13;79.04;99549.50;4989630;28;20310;-78
2022/07/16 09:12:01;;;;;;;5.28;1.90;;;;;;;22.38;78.25;99547.72;4987825;28;20195;-78
2022/07/16 09:14:30;;;;;;;5.95;1.92;;;;;;;22.22;74.99;99554.78;4991379;28;20199;-78
2022/07/16 09:17:01;;;;;;;2.90;1.98;;;;;;;22.25;77.87;99548.19;4988327;28;20200;-78
2022/07/16 09:19:31;;;;;;;5.65;2.35;;;;;;;22.39;77.44;99554.81;4986618;28;20205;-78
2022/07/16 09:22:03;;;;;;;4.40;1.98;;;;;;;22.44;75.39;99541.69;4988732;28;20339;-78
2022/07/16 09:24:32;;;;;;;3.58;1.90;;;;;;;22.49;75.86;99547.44;4986912;28;20199;-78
2022/07/16 09:27:03;;;;;;;2.75;1.60;;;;;;;22.50;75.56;99552.66;4987705;28;20287;-78
2022/07/16 09:29:35;;;;;;;4.57;1.88;;;;;;;22.54;77.34;99550.47;4988263;28;20211;-78
2022/07/16 09:32:05;;;;;;;7.95;2.00;;;;;;;22.75;76.28;99548.16;4988938;28;20249;-78
2022/07/16 09:34:34;;;;;;;3.53;1.85;;;;;;;22.69;74.06;99554.22;4986985;28;20195;-78
2022/07/16 09:37:03;;;;;;;3.83;1.80;;;;;;;22.72;73.75;99536.84;4990751;28;20227;-78
2022/07/16 09:39:33;;;;;;;8.43;2.70;;;;;;;22.47;76.90;99550.28;4987978;28;20234;-78
2022/07/16 09:42:02;;;;;;;5.55;2.08;;;;;;;22.43;77.21;99553.50;4985601;28;20198;-78
2022/07/16 09:44:32;;;;;;;5.95;1.98;;;;;;;22.56;77.76;99557.38;4985148;28;20202;-78
2022/07/16 09:47:06;;;;;;;3.50;2.05;;;;;;;22.55;75.75;99553.00;4987808;28;20199;-77
2022/07/16 09:49:37;;;;;;;5.30;2.60;;;;;;;22.56;75.59;99551.16;4987693;28;20306;-78
2022/07/16 09:52:06;;;;;;;4.50;2.20;;;;;;;22.13;78.51;99555.75;4990688;28;20204;-78
2022/07/16 09:54:38;;;;;;;6.40;2.10;;;;;;;22.27;82.53;99565.91;4990857;28;20199;-77
2022/07/16 09:57:13;;;;;;;5.70;2.00;;;;;;;22.49;81.09;99558.25;4989208;28;20194;-78
2022/07/16 09:59:44;;;;;;;3.20;2.03;;;;;;;22.14;82.15;99557.44;4990456;28;20202;-78
2022/07/16 10:02:31;;;;;;;4.80;2.20;;;;;;;22.98;78.95;99559.19;4990457;28;20223;-78
2022/07/16 10:05:00;;;;;;;5.28;2.10;;;;;;;23.10;77.80;99552.44;4990769;28;20203;-78
2022/07/16 10:07:33;;;;;;;4.18;2.00;;;;;;;22.94;80.43;99543.47;4988254;28;20213;-78
2022/07/16 10:10:01;;;;;;;5.35;2.42;;;;;;;23.09;81.76;99558.03;4992050;28;20218;-77
2022/07/16 10:12:31;;;;;;;6.35;2.25;;;;;;;22.96;80.45;99558.50;4982678;28;20215;-78
2022/07/16 10:15:00;;;;;;;3.30;2.30;;;;;;;23.02;80.66;99555.13;4991729;28;20211;-79
2022/07/16 10:17:35;;;;;;;6.13;2.05;;;;;;;23.38;79.61;99558.34;4994003;28;20203;-78
2022/07/16 10:20:08;;;;;;;3.92;2.25;;;;;;;23.06;78.88;99556.47;4993612;28;20229;-78
2022/07/16 10:22:39;;;;;;;4.47;2.38;;;;;;;22.91;79.21;99565.44;4996665;28;20237;-78
2022/07/16 10:25:15;;;;;;;6.60;2.33;;;;;;;22.72;79.98;99556.59;4987580;28;20203;-78
2022/07/16 10:27:45;;;;;;;5.97;2.40;;;;;;;22.56;82.78;99564.66;4992570;28;20233;-78
2022/07/16 10:30:16;;;;;;;4.15;2.42;;;;;;;22.99;83.87;99568.16;4993557;28;20223;-78
2022/07/16 10:33:16;;;;;;;3.83;2.30;;;;;;;22.63;78.54;99563.00;4989737;28;20762;-78
2022/07/16 10:35:50;;;;;;;3.80;2.03;;;;;;;22.83;79.33;99571.63;4997886;28;20207;-78
2022/07/16 10:38:21;;;;;;;3.63;2.22;;;;;;;23.31;78.65;99575.41;4989278;28;20238;-78
2022/07/16 10:41:15;;;;;;;4.70;2.38;;;;;;;23.93;75.08;99572.97;4989191;28;20203;-78
2022/07/16 10:44:13;;;;;;;3.67;2.30;;;;;;;23.66;71.71;99569.66;4989060;28;20207;-78
2022/07/16 10:46:53;;;;;;;3.20;2.22;;;;;;;23.88;70.75;99586.19;4989791;28;20270;-78
2022/07/16 10:49:24;;;;;;;3.63;2.42;;;;;;;24.01;70.64;99572.09;4994758;28;20292;-78
2022/07/16 10:51:57;;;;;;;5.53;2.47;;;;;;;24.15;68.36;99577.63;4990655;28;20195;-78
2022/07/16 10:54:33;;;;;;;3.20;2.08;;;;;;;24.35;66.36;99567.25;4993205;28;20448;-78
2022/07/16 10:57:03;;;;;;;2.55;2.30;;;;;;;24.03;67.78;99565.50;4992335;28;20529;-78
2022/07/16 10:59:34;;;;;;;7.25;2.20;;;;;;;23.74;68.90;99560.69;4990351;28;20191;-78
2022/07/16 11:02:04;;;;;;;6.10;2.40;;;;;;;23.59;72.39;99560.53;4993274;28;20680;-78
2022/07/16 11:04:37;;;;;;;3.55;2.28;;;;;;;24.07;69.64;99558.72;4990440;28;20195;-78
2022/07/16 11:07:08;;;;;;;3.00;1.90;;;;;;;23.96;66.73;99569.94;4990701;28;20202;-78
2022/07/16 11:09:39;;;;;;;4.45;2.08;;;;;;;24.33;65.79;99563.91;4993828;28;20227;-78
2022/07/16 11:12:14;;;;;;;2.65;2.33;;;;;;;24.14;62.60;99580.53;4992087;28;20191;-78
2022/07/16 11:14:44;;;;;;;2.42;2.00;;;;;;;24.32;62.17;99562.22;4983449;28;20252;-78
2022/07/16 11:17:13;;;;;;;5.00;2.40;;;;;;;24.20;61.91;99558.16;4986308;28;20198;-79
2022/07/16 11:19:48;;;;;;;6.45;2.22;;;;;;;24.52;60.58;99563.47;4991246;28;20203;-78
2022/07/16 11:22:18;;;;;;;4.13;2.50;;;;;;;24.89;61.11;99564.56;4989423;28;20254;-78
2022/07/16 11:24:48;;;;;;;2.50;2.30;;;;;;;24.46;63.15;99553.31;4996278;28;20199;-78
2022/07/16 11:27:17;;;;;;;3.55;1.92;;;;;;;24.31;64.59;99559.63;4996237;28;20213;-78
2022/07/16 11:29:46;;;;;;;5.03;2.20;;;;;;;23.92;65.63;99564.00;4992673;28;20371;-78
2022/07/16 11:32:16;;;;;;;3.83;2.67;;;;;;;23.77;65.64;99578.44;4989992;28;20195;-78
2022/07/16 11:34:46;;;;;;;3.50;2.30;;;;;;;23.58;69.04;99572.34;4982021;28;20233;-78
2022/07/16 11:37:14;;;;;;;3.25;2.50;;;;;;;23.73;72.27;99583.31;4992483;28;20238;-77
2022/07/16 11:39:43;;;;;;;5.30;2.40;;;;;;;23.55;72.59;99588.09;4989851;28;20278;-78
2022/07/16 11:42:11;;;;;;;4.82;2.40;;;;;;;24.07;73.11;99582.25;4983935;28;20230;-77
2022/07/16 11:44:41;;;;;;;4.25;2.17;;;;;;;24.31;71.94;99578.56;4989029;28;20199;-80
2022/07/16 11:47:12;;;;;;;3.40;2.50;;;;;;;24.82;66.46;99575.28;4990076;28;20196;-79
2022/07/16 11:49:42;;;;;;;3.63;2.53;;;;;;;25.09;64.01;99581.22;4992544;28;20674;-79
2022/07/16 11:52:24;;;;;;;2.70;2.30;;;;;;;25.18;64.00;99582.00;4988029;28;20222;-79